createdAt,value
2022-12-01T00:01:25.082Z,16.33
2022-12-01T00:05:28.195Z,15.67
2022-12-01T00:09:40.962Z,16.27
2022-12-01T00:13:41.491Z,16.20
2022-12-01T00:17:43.833Z,15.73
2022-12-01T00:21:46.594Z,16.87
2022-12-01T00:25:46.647Z,15.57
2022-12-01T00:29:47.140Z,16.43
2022-12-01T00:33:47.575Z,15.50
2022-12-01T00:37:50.228Z,15.93
2022-12-01T00:41:50.501Z,18.17
2022-12-01T00:45:50.770Z,16.47
2022-12-01T00:49:52.378Z,15.80
2022-12-01T00:53:55.069Z,17.30
2022-12-01T00:57:55.150Z,17.00
2022-12-01T01:01:55.756Z,16.53
2022-12-01T01:05:56.278Z,16.93
2022-12-01T01:09:58.896Z,17.10
2022-12-01T01:13:58.929Z,17.10
2022-12-01T01:17:59.035Z,18.37
2022-12-01T01:21:59.115Z,16.57
2022-12-01T01:26:09.705Z,17.60
2022-12-01T01:30:11.935Z,16.87
2022-12-01T01:34:12.153Z,16.50
2022-12-01T01:38:12.290Z,15.87
2022-12-01T01:42:16.773Z,16.10
2022-12-01T01:46:20.187Z,15.77
2022-12-01T01:50:25.386Z,15.67
2022-12-01T01:54:32.098Z,16.40
2022-12-01T01:58:37.163Z,16.97
2022-12-01T02:02:40.962Z,19.50
2022-12-01T02:06:41.379Z,18.43
2022-12-01T02:11:06.606Z,18.67
2022-12-01T02:15:24.662Z,18.20
2022-12-01T02:19:56.806Z,19.10
2022-12-01T02:24:46.056Z,19.33
2022-12-01T02:29:19.842Z,17.23
2022-12-01T02:33:28.638Z,17.63
2022-12-01T02:37:37.898Z,19.37
2022-12-01T02:41:45.743Z,20.30
2022-12-01T02:45:53.669Z,19.33
2022-12-01T02:50:01.246Z,18.23
2022-12-01T02:54:05.011Z,18.57
2022-12-01T02:58:05.135Z,17.53
2022-12-01T03:02:21.877Z,18.50
2022-12-01T03:06:37.929Z,19.90
2022-12-01T03:10:55.260Z,18.67
2022-12-01T03:15:08.187Z,17.77
2022-12-01T03:19:16.339Z,16.67
2022-12-01T03:23:26.752Z,16.67
2022-12-01T03:27:32.763Z,16.57
2022-12-01T03:31:41.064Z,16.00
2022-12-01T03:35:48.857Z,16.50
2022-12-01T03:40:00.308Z,18.23
2022-12-01T03:44:11.224Z,17.33
2022-12-01T03:48:11.820Z,18.37
2022-12-01T03:52:27.090Z,17.67
2022-12-01T03:56:36.459Z,16.37
2022-12-01T04:00:37.210Z,17.10
2022-12-01T04:04:37.566Z,17.93
2022-12-01T04:08:38.023Z,17.47
2022-12-01T04:12:40.635Z,18.10
2022-12-01T04:16:40.718Z,17.90
2022-12-01T04:20:40.863Z,18.03
2022-12-01T04:24:41.044Z,17.47
2022-12-01T04:28:43.701Z,17.80
2022-12-01T04:32:46.324Z,17.90
2022-12-01T04:36:46.439Z,17.57
2022-12-01T04:40:46.578Z,17.50
2022-12-01T04:44:49.223Z,17.57
2022-12-01T04:48:49.401Z,18.10
2022-12-01T04:52:49.454Z,17.63
2022-12-01T04:56:49.573Z,16.70
2022-12-01T05:00:52.335Z,16.93
2022-12-01T05:04:52.420Z,16.30
2022-12-01T05:08:53.865Z,16.70
2022-12-01T05:12:55.263Z,16.47
2022-12-01T05:16:58.366Z,16.13
2022-12-01T05:21:01.362Z,16.83
2022-12-01T05:25:01.911Z,16.57
2022-12-01T05:29:02.134Z,16.23
2022-12-01T05:33:04.804Z,16.87
2022-12-01T05:37:05.687Z,16.60
2022-12-01T05:41:06.245Z,17.00
2022-12-01T05:45:07.171Z,17.63
2022-12-01T05:49:09.899Z,16.53
2022-12-01T05:53:10.507Z,18.27
2022-12-01T05:57:10.647Z,17.87
2022-12-01T06:01:10.905Z,18.00
2022-12-01T06:05:14.374Z,18.43
2022-12-01T06:09:14.424Z,16.97
2022-12-01T06:13:14.695Z,18.07
2022-12-01T06:17:15.144Z,19.67
2022-12-01T06:21:18.106Z,18.37
2022-12-01T06:25:18.358Z,18.87
2022-12-01T06:29:18.512Z,18.50
2022-12-01T06:33:18.757Z,18.67
2022-12-01T06:37:21.517Z,18.20
2022-12-01T06:41:21.622Z,18.33
2022-12-01T06:45:22.269Z,17.50
2022-12-01T06:49:23.421Z,18.07
2022-12-01T06:53:27.447Z,18.07
2022-12-01T06:57:27.912Z,18.17
2022-12-01T07:01:28.571Z,17.47
2022-12-01T07:05:29.455Z,17.33
2022-12-01T07:09:32.173Z,18.73
2022-12-01T07:13:34.159Z,18.30
2022-12-01T07:17:34.631Z,17.00
2022-12-01T07:21:34.734Z,17.33
2022-12-01T07:25:37.375Z,18.07
2022-12-01T07:29:37.440Z,19.13
2022-12-01T07:33:38.408Z,17.70
2022-12-01T07:37:38.548Z,19.30
2022-12-01T07:41:41.243Z,18.67
2022-12-01T07:45:41.412Z,19.30
2022-12-01T07:49:41.579Z,17.90
2022-12-01T07:53:42.216Z,18.83
2022-12-01T07:57:44.890Z,17.43
2022-12-01T08:01:46.076Z,17.20
2022-12-01T08:05:46.462Z,17.60
2022-12-01T08:09:47.662Z,17.43
2022-12-01T08:13:50.993Z,17.13
2022-12-01T08:17:51.045Z,16.47
2022-12-01T08:21:51.123Z,17.50
2022-12-01T08:25:52.525Z,16.87
2022-12-01T08:29:55.218Z,17.40
2022-12-01T08:33:56.081Z,18.00
2022-12-01T08:37:57.394Z,17.93
2022-12-01T08:41:57.565Z,16.50
2022-12-01T08:46:01.500Z,17.17
2022-12-01T08:50:01.544Z,17.50
2022-12-01T08:54:04.582Z,17.23
2022-12-01T08:58:04.742Z,17.03
2022-12-01T09:02:10.941Z,16.83
2022-12-01T09:06:16.749Z,16.00
2022-12-01T09:10:16.880Z,17.00
2022-12-01T09:14:20.018Z,16.83
2022-12-01T09:18:22.722Z,15.87
2022-12-01T09:22:22.871Z,17.67
2022-12-01T09:26:23.818Z,16.90
2022-12-01T09:30:24.079Z,15.70
2022-12-01T09:34:28.120Z,16.00
2022-12-01T09:38:28.495Z,15.23
2022-12-01T09:42:33.913Z,16.30
2022-12-01T09:46:44.026Z,16.83
2022-12-01T09:50:47.060Z,15.20
2022-12-01T09:54:47.992Z,15.53
2022-12-01T09:58:50.868Z,15.80
2022-12-01T10:02:59.720Z,16.23
2022-12-01T10:07:07.908Z,15.60
2022-12-01T10:11:24.597Z,16.20
2022-12-01T10:15:49.168Z,14.80
2022-12-01T10:20:01.223Z,16.00
2022-12-01T10:24:36.559Z,16.07
2022-12-01T10:29:10.768Z,16.03
2022-12-01T10:33:25.289Z,16.57
2022-12-01T10:37:29.974Z,16.03
2022-12-01T10:41:39.229Z,16.10
2022-12-01T10:45:46.677Z,15.77
2022-12-01T10:49:47.017Z,15.60
2022-12-01T10:53:47.165Z,15.03
2022-12-01T10:57:50.176Z,14.90
2022-12-01T11:01:51.436Z,15.20
2022-12-01T11:05:58.242Z,15.73
2022-12-01T11:10:20.208Z,15.60
2022-12-01T11:14:36.956Z,13.73
2022-12-01T11:18:39.724Z,14.53
2022-12-01T11:22:39.794Z,14.73
2022-12-01T11:26:40.110Z,14.40
2022-12-01T11:30:42.959Z,13.93
2022-12-01T11:34:43.114Z,13.53
2022-12-01T11:38:43.416Z,13.10
2022-12-01T11:42:44.254Z,13.67
2022-12-01T11:46:55.750Z,13.33
2022-12-01T11:51:13.918Z,13.40
2022-12-01T11:55:25.877Z,12.80
2022-12-01T11:59:28.622Z,12.83
2022-12-01T12:03:44.678Z,12.93
2022-12-01T12:08:01.484Z,13.23
2022-12-01T12:12:20.418Z,13.47
2022-12-01T12:16:33.739Z,12.60
2022-12-01T12:21:01.616Z,12.50
2022-12-01T12:25:22.890Z,12.70
2022-12-01T12:29:46.075Z,12.17
2022-12-01T12:34:23.640Z,13.00
2022-12-01T12:38:51.100Z,12.20
2022-12-01T12:43:21.186Z,12.07
2022-12-01T12:47:51.648Z,11.73
2022-12-01T12:52:02.588Z,11.30
2022-12-01T12:56:16.798Z,12.50
2022-12-01T13:00:22.267Z,11.33
2022-12-01T13:04:30.341Z,11.87
2022-12-01T13:08:37.216Z,12.60
2022-12-01T13:12:48.568Z,11.53
2022-12-01T13:16:52.775Z,12.00
2022-12-01T13:20:57.040Z,10.53
2022-12-01T13:24:57.327Z,11.33
2022-12-01T13:29:01.599Z,11.27
2022-12-01T13:33:05.104Z,11.77
2022-12-01T13:37:05.345Z,11.33
2022-12-01T13:41:28.858Z,10.97
2022-12-01T13:45:35.613Z,11.23
2022-12-01T13:49:44.052Z,12.40
2022-12-01T13:54:07.956Z,11.90
2022-12-01T13:58:45.732Z,11.53
2022-12-01T14:02:48.472Z,10.50
2022-12-01T14:06:52.523Z,11.77
2022-12-01T14:10:59.609Z,11.03
2022-12-01T14:15:05.034Z,11.43
2022-12-01T14:19:07.871Z,11.40
2022-12-01T14:23:19.000Z,12.20
2022-12-01T14:27:36.095Z,13.30
2022-12-01T14:32:21.039Z,12.77
2022-12-01T14:36:43.822Z,11.13
2022-12-01T14:40:44.699Z,12.37
2022-12-01T14:44:51.734Z,12.23
2022-12-01T14:48:53.451Z,12.87
2022-12-01T14:53:04.409Z,12.77
2022-12-01T14:57:11.113Z,13.33
2022-12-01T15:01:16.851Z,11.27
2022-12-01T15:05:20.484Z,12.73
2022-12-01T15:09:34.469Z,11.90
2022-12-01T15:13:44.935Z,10.83
2022-12-01T15:17:45.033Z,11.77
2022-12-01T15:21:45.153Z,13.90
2022-12-01T15:25:49.458Z,13.53
2022-12-01T15:29:50.109Z,12.10
2022-12-01T15:33:55.792Z,13.30
2022-12-01T15:37:57.419Z,13.43
2022-12-01T15:42:01.033Z,12.57
2022-12-01T15:46:05.108Z,13.33
2022-12-01T15:50:07.166Z,12.43
2022-12-01T15:54:07.847Z,11.77
2022-12-01T15:58:22.721Z,14.30
2022-12-01T16:02:33.378Z,14.97
2022-12-01T16:06:39.279Z,14.03
2022-12-01T16:10:40.362Z,13.53
2022-12-01T16:14:54.033Z,14.30
2022-12-01T16:18:59.314Z,13.23
2022-12-01T16:23:02.930Z,13.90
2022-12-01T16:27:07.154Z,12.97
2022-12-01T16:31:20.881Z,11.37
2022-12-01T16:35:27.922Z,10.67
2022-12-01T16:39:27.999Z,10.20
2022-12-01T16:43:30.824Z,11.27
2022-12-01T16:47:35.693Z,10.93
2022-12-01T16:51:54.832Z,12.67
2022-12-01T16:55:58.057Z,10.87
2022-12-01T16:59:58.122Z,12.10
2022-12-01T17:04:06.060Z,11.27
2022-12-01T17:08:08.693Z,11.97
2022-12-01T17:12:09.799Z,11.30
2022-12-01T17:16:18.117Z,10.97
2022-12-01T17:20:21.830Z,11.33
2022-12-01T17:24:21.982Z,11.53
2022-12-01T17:28:22.475Z,13.30
2022-12-01T17:32:22.697Z,14.10
2022-12-01T17:36:25.684Z,14.13
2022-12-01T17:40:25.809Z,12.83
2022-12-01T17:44:26.306Z,12.50
2022-12-01T17:48:26.476Z,12.47
2022-12-01T17:52:29.310Z,11.90
2022-12-01T17:56:29.596Z,12.40
2022-12-01T18:00:30.024Z,12.90
2022-12-01T18:04:30.589Z,11.77
2022-12-01T18:08:38.366Z,12.03
2022-12-01T18:12:38.460Z,11.77
2022-12-01T18:16:38.645Z,12.30
2022-12-01T18:20:43.720Z,12.90
2022-12-01T18:24:46.618Z,13.23
2022-12-01T18:28:47.396Z,13.83
2022-12-01T18:32:47.851Z,13.63
2022-12-01T18:36:48.289Z,13.17
2022-12-01T18:40:50.970Z,13.80
2022-12-01T18:44:51.439Z,14.33
2022-12-01T18:48:54.423Z,13.23
2022-12-01T18:52:54.542Z,13.80
2022-12-01T18:56:59.018Z,13.47
2022-12-01T19:00:59.259Z,13.47
2022-12-01T19:04:59.965Z,13.23
2022-12-01T19:09:05.413Z,14.10
2022-12-01T19:13:08.552Z,14.77
2022-12-01T19:17:09.013Z,15.70
2022-12-01T19:21:12.088Z,16.17
2022-12-01T19:25:13.536Z,14.67
2022-12-01T19:29:16.529Z,14.67
2022-12-01T19:33:16.658Z,13.83
2022-12-01T19:37:16.851Z,14.23
2022-12-01T19:41:20.405Z,13.70
2022-12-01T19:45:23.206Z,14.60
2022-12-01T19:49:23.601Z,15.03
2022-12-01T19:53:23.757Z,17.73
2022-12-01T19:57:24.399Z,15.57
2022-12-01T20:01:28.172Z,16.10
2022-12-01T20:05:28.454Z,16.50
2022-12-01T20:09:28.591Z,17.07
2022-12-01T20:13:39.176Z,17.97
2022-12-01T20:17:45.289Z,17.70
2022-12-01T20:21:47.129Z,16.43
2022-12-01T20:25:58.978Z,17.67
2022-12-01T20:30:01.722Z,17.10
2022-12-01T20:34:15.363Z,16.70
2022-12-01T20:38:17.269Z,16.97
2022-12-01T20:58:43.992Z,17.43
2022-12-01T21:02:51.404Z,16.37
2022-12-01T21:06:54.108Z,17.10
2022-12-01T21:10:59.179Z,17.10
2022-12-01T21:26:41.665Z,16.57
2022-12-01T21:30:45.142Z,16.20
2022-12-01T21:34:48.489Z,17.90
2022-12-01T21:38:55.341Z,17.13
2022-12-01T21:59:45.104Z,17.57
2022-12-01T22:04:49.169Z,17.93
2022-12-01T22:09:34.488Z,17.50
2022-12-01T22:14:08.706Z,19.53
2022-12-01T22:18:26.160Z,19.07
2022-12-01T22:22:29.072Z,19.10
2022-12-01T22:26:29.797Z,20.07
2022-12-01T22:30:29.913Z,19.53
2022-12-01T22:34:32.701Z,20.27
2022-12-01T22:38:40.033Z,20.37
2022-12-01T22:42:40.875Z,19.60
2022-12-01T22:46:42.523Z,19.57
2022-12-01T22:50:51.329Z,22.63
2022-12-01T22:54:53.113Z,22.10
2022-12-01T22:58:53.473Z,20.43
2022-12-01T23:02:58.324Z,22.90
2022-12-01T23:07:20.160Z,22.57
2022-12-01T23:11:20.352Z,22.13
2022-12-01T23:15:34.211Z,24.20
2022-12-01T23:19:35.728Z,24.23
2022-12-01T23:23:40.528Z,23.57
2022-12-01T23:27:41.336Z,23.87
2022-12-01T23:31:41.758Z,24.83
2022-12-01T23:35:49.006Z,24.37
2022-12-01T23:39:53.601Z,24.90
2022-12-01T23:43:53.951Z,23.53
2022-12-01T23:47:57.208Z,23.27
2022-12-01T23:52:00.347Z,23.87
2022-12-01T23:56:12.940Z,24.73
